首页
METAR-TAF:

METAR-TAF

机场 :

珀斯機場

珀斯, 澳大利亚

纬度: 31-56S, 经度: 115-57E, 海拔: 20米

当前天气观测

该预报发布于28分钟前的00:30 UTC
风速5节,风向北转东北
温度 12°C
湿度 88%
气压 1029 hPa
能见度10公里或以上
少量云层高于4000英尺

METAR: YPPH 210030Z 02005KT 9999 FEW040 12/10 Q1029 NOSIG

时间: 08:58 (00:58 UTC)

预报

该预报发布于1小时和48分钟前的23:10 UTC
预报有效从21日的 00点(UTC)到 22日的 06点(UTC)
风速5节,风向北转东北
能见度10公里或以上
散云层高于4000英尺
从 21日的 0100点(UTC)
风速5节,风向多变
能见度10公里或以上
少量云层高于1000英尺
多云层高于4000英尺
从 21日的 0400点(UTC)
风速5节,风向西转西北
能见度10公里或以上
散云层高于4000英尺
小阵雨
从 21日的 1200点(UTC)
风速3节,风向北转东北
能见度10公里或以上
1500米以下无云,无积雨云
几率 30%
从 21日的 00点(UTC)到 21日的 01点(UTC)
能見度: 0300

TAF: YPPH 202310Z 2100/2206 03005KT 9999 SCT040 FM210100 VRB05KT 9999 FEW010 BKN040 FM210400 29005KT 9999 -SHRA SCT040 FM211200 03003KT CAVOK PROB30 2100/2101 0300 FG

超过4000个机场的气象观测和天气预报(METAR&TAF报告)。

可查询的气象台以黄色和红色小点在地图上表示。

将鼠标移到小点上方,可查看气象台名称。

然后点击查看天气观测和预报。

如需切换地图:点击带黑十字的绿色按钮放大地图;点击带横线的绿色按钮缩小地图;或者点击绿色箭头查看邻近地区的地图。


METAR-TAF: